Time;durP1;ratioP1;P1;durP2;ratioP2;P2;SDS_P1;SDS_P2;PMS_P1;PMS_P2;Temp;Humidity;BMP_temperature;BMP_pressure;BME280_temperature;BME280_humidity;BME280_pressure;Samples;Min_cycle;Max_cycle;Signal;HPM_P1;HPM_P2
2021/11/19 00:01:11;;;;;;;4.20;1.83;;;;;;;;;;2088330;28;20025;-82
2021/11/19 00:02:31;;;;;;;2.25;1.65;;;;;;;;;;2094840;28;20016;-82
2021/11/19 00:03:50;;;;;;;3.75;1.85;;;;;;;;;;2091381;28;20037;-82
2021/11/19 00:05:09;;;;;;;2.35;1.85;;;;;;;;;;2089559;28;20025;-82
2021/11/19 00:06:28;;;;;;;2.15;1.60;;;;;;;;;;2088481;28;20029;-80
2021/11/19 00:07:48;;;;;;;2.40;1.60;;;;;;;;;;2084971;28;20116;-80
2021/11/19 00:09:07;;;;;;;3.10;2.35;;;;;;;;;;2084455;28;20057;-80
2021/11/19 00:10:26;;;;;;;2.72;1.70;;;;;;;;;;2088056;28;20084;-80
2021/11/19 00:11:46;;;;;;;1.95;1.73;;;;;;;;;;2083709;28;20032;-80
2021/11/19 00:13:05;;;;;;;3.42;1.70;;;;;;;;;;2086981;28;20400;-80
2021/11/19 00:14:25;;;;;;;2.10;1.83;;;;;;;;;;2087051;28;20481;-79
2021/11/19 00:15:44;;;;;;;4.50;2.05;;;;;;;;;;2088700;28;20417;-79
2021/11/19 00:17:05;;;;;;;1.88;1.77;;;;;;;;;;2087789;28;20026;-80
2021/11/19 00:18:24;;;;;;;3.30;2.10;;;;;;;;;;2084153;28;20029;-80
2021/11/19 00:19:44;;;;;;;3.28;1.60;;;;;;;;;;2085467;28;20018;-80
2021/11/19 00:21:04;;;;;;;3.67;2.35;;;;;;;;;;2083624;28;20025;-80
2021/11/19 00:22:23;;;;;;;2.25;2.05;;;;;;;;;;2083352;28;20025;-80
2021/11/19 00:23:45;;;;;;;3.25;1.98;;;;;;;;;;2087082;28;20049;-80
2021/11/19 00:25:05;;;;;;;2.10;1.90;;;;;;;;;;2086369;28;20059;-80
2021/11/19 00:26:24;;;;;;;4.72;2.20;;;;;;;;;;2085059;28;20029;-80
2021/11/19 00:27:44;;;;;;;3.72;1.98;;;;;;;;;;2095139;28;20032;-80
2021/11/19 00:29:03;;;;;;;5.40;2.15;;;;;;;;;;2088365;28;20033;-80
2021/11/19 00:30:23;;;;;;;2.85;2.10;;;;;;;;;;2081866;28;20041;-80
2021/11/19 00:31:42;;;;;;;3.28;1.85;;;;;;;;;;2089514;28;20889;-80
2021/11/19 00:33:02;;;;;;;6.70;2.28;;;;;;;;;;2089182;28;20393;-80
2021/11/19 00:34:21;;;;;;;5.75;2.00;;;;;;;;;;2086340;28;20038;-80
2021/11/19 00:35:42;;;;;;;5.75;2.25;;;;;;;;;;2086065;28;20025;-80
2021/11/19 00:37:01;;;;;;;3.00;1.92;;;;;;;;;;2083446;28;20095;-80
2021/11/19 00:38:21;;;;;;;5.35;2.33;;;;;;;;;;2085628;28;20496;-79
2021/11/19 00:39:40;;;;;;;5.28;2.42;;;;;;;;;;2081253;28;20033;-79
2021/11/19 00:41:00;;;;;;;5.78;2.45;;;;;;;;;;2084185;28;20037;-79
2021/11/19 00:42:19;;;;;;;2.95;2.45;;;;;;;;;;2094851;28;20049;-79
2021/11/19 00:43:39;;;;;;;6.18;2.33;;;;;;;;;;2089442;28;20029;-79
2021/11/19 00:44:58;;;;;;;5.25;2.38;;;;;;;;;;2086382;28;20473;-79
2021/11/19 00:46:17;;;;;;;2.28;2.03;;;;;;;;;;2087153;28;20036;-80
2021/11/19 00:47:36;;;;;;;2.20;2.10;;;;;;;;;;2086814;28;20029;-79
2021/11/19 00:48:55;;;;;;;3.13;2.50;;;;;;;;;;2086817;28;20398;-79
2021/11/19 00:50:14;;;;;;;2.97;2.30;;;;;;;;;;2090651;28;20013;-79
2021/11/19 00:51:36;;;;;;;4.00;2.42;;;;;;;;;;2088841;28;20513;-79
2021/11/19 00:52:56;;;;;;;2.70;2.42;;;;;;;;;;2084522;28;20017;-79
2021/11/19 00:54:15;;;;;;;2.90;2.13;;;;;;;;;;2083993;28;20033;-79
2021/11/19 00:55:35;;;;;;;3.50;2.22;;;;;;;;;;2085913;28;20048;-79
2021/11/19 00:56:56;;;;;;;5.85;2.50;;;;;;;;;;2086049;28;20045;-79
2021/11/19 00:58:16;;;;;;;2.65;2.38;;;;;;;;;;2086985;28;20025;-79
2021/11/19 00:59:36;;;;;;;3.78;2.67;;;;;;;;;;2085905;28;20497;-79
2021/11/19 01:01:02;;;;;;;3.35;2.45;;;;;;;;;;2091669;28;20028;-79
2021/11/19 01:02:22;;;;;;;3.35;2.70;;;;;;;;;;2089233;28;20037;-79
2021/11/19 01:03:41;;;;;;;5.05;2.47;;;;;;;;;;2081025;28;20033;-79
2021/11/19 01:05:00;;;;;;;3.65;2.38;;;;;;;;;;2082930;28;20516;-79
2021/11/19 01:06:19;;;;;;;3.05;2.70;;;;;;;;;;2084525;28;20068;-78
2021/11/19 01:07:38;;;;;;;4.45;2.40;;;;;;;;;;2083549;28;20428;-79
2021/11/19 01:08:57;;;;;;;4.07;2.83;;;;;;;;;;2089308;28;20440;-79
2021/11/19 01:10:18;;;;;;;5.07;2.75;;;;;;;;;;2088210;28;20033;-79
2021/11/19 01:11:39;;;;;;;4.38;2.58;;;;;;;;;;2091205;28;20036;-79
2021/11/19 01:12:57;;;;;;;4.65;2.80;;;;;;;;;;2089824;28;20013;-80
2021/11/19 01:14:20;;;;;;;5.05;2.85;;;;;;;;;;2088320;28;20484;-79
2021/11/19 01:15:39;;;;;;;;;;;;;;;;;;2087869;28;20472;-79
2021/11/19 01:17:03;;;;;;;5.32;2.97;;;;;;;;;;2086735;28;19955;-79
2021/11/19 01:18:34;;;;;;;4.53;3.05;;;;;;;;;;2084517;28;20029;-79
2021/11/19 01:20:00;;;;;;;2.88;2.67;;;;;;;;;;2087062;28;20022;-79
2021/11/19 01:21:26;;;;;;;4.63;2.90;;;;;;;;;;2093635;28;20102;-78
2021/11/19 01:22:46;;;;;;;5.20;3.10;;;;;;;;;;2092819;28;20032;-79
2021/11/19 01:24:06;;;;;;;3.45;2.63;;;;;;;;;;2084869;28;20021;-79
2021/11/19 01:25:28;;;;;;;7.13;2.78;;;;;;;;;;2086471;28;20033;-79
2021/11/19 01:26:48;;;;;;;4.30;2.60;;;;;;;;;;2085001;28;20568;-79
2021/11/19 01:28:07;;;;;;;3.70;2.78;;;;;;;;;;2085104;28;20033;-79
2021/11/19 01:29:26;;;;;;;3.22;2.38;;;;;;;;;;2090007;28;20033;-79
2021/11/19 01:30:48;;;;;;;3.67;2.75;;;;;;;;;;2087578;28;20025;-79
2021/11/19 01:32:09;;;;;;;4.32;3.05;;;;;;;;;;2088654;28;20064;-79
2021/11/19 01:33:28;;;;;;;4.18;3.42;;;;;;;;;;2087211;28;20056;-78
2021/11/19 01:34:48;;;;;;;4.35;3.33;;;;;;;;;;2084333;28;20036;-78
2021/11/19 01:36:07;;;;;;;3.95;3.55;;;;;;;;;;2085421;28;20029;-79
2021/11/19 01:37:27;;;;;;;4.40;3.63;;;;;;;;;;2086367;28;20033;-79
2021/11/19 01:38:47;;;;;;;5.93;3.92;;;;;;;;;;2087544;28;20037;-79
2021/11/19 01:40:08;;;;;;;3.85;3.38;;;;;;;;;;2084491;28;20041;-79
2021/11/19 01:41:32;;;;;;;3.97;3.38;;;;;;;;;;2088732;28;20060;-79
2021/11/19 01:42:53;;;;;;;4.80;3.47;;;;;;;;;;2088087;28;20032;-79
2021/11/19 01:44:17;;;;;;;5.20;3.83;;;;;;;;;;2090591;28;20029;-79
2021/11/19 01:45:41;;;;;;;5.05;3.65;;;;;;;;;;2086890;28;20052;-79
2021/11/19 01:47:01;;;;;;;5.45;4.15;;;;;;;;;;2083738;28;20768;-80
2021/11/19 01:48:23;;;;;;;6.97;4.15;;;;;;;;;;2087951;28;20107;-79
2021/11/19 01:49:42;;;;;;;4.20;3.80;;;;;;;;;;2087077;28;20509;-80
2021/11/19 01:51:07;;;;;;;5.53;4.20;;;;;;;;;;2084205;28;20099;-80
2021/11/19 01:52:42;;;;;;;6.57;3.75;;;;;;;;;;2084369;28;20041;-80
2021/11/19 01:54:07;;;;;;;10.10;4.47;;;;;;;;;;2083853;28;20520;-80
2021/11/19 01:55:29;;;;;;;11.27;4.18;;;;;;;;;;2085684;28;20485;-79
2021/11/19 01:56:51;;;;;;;5.53;4.63;;;;;;;;;;2084156;28;20025;-79
2021/11/19 01:58:13;;;;;;;9.98;4.20;;;;;;;;;;2085612;28;20463;-79
2021/11/19 01:59:43;;;;;;;4.93;4.53;;;;;;;;;;2083715;28;20025;-79
2021/11/19 02:01:18;;;;;;;8.02;4.90;;;;;;;;;;2091053;28;20024;-79
2021/11/19 02:02:39;;;;;;;6.60;4.18;;;;;;;;;;2087075;28;20088;-80
2021/11/19 02:04:00;;;;;;;7.55;4.55;;;;;;;;;;2083394;28;20021;-80
2021/11/19 02:05:22;;;;;;;7.07;4.93;;;;;;;;;;2083770;28;20443;-79
2021/11/19 02:06:43;;;;;;;8.50;4.95;;;;;;;;;;2086979;28;20064;-79
2021/11/19 02:08:08;;;;;;;10.00;4.68;;;;;;;;;;2089169;28;20024;-80
2021/11/19 02:09:41;;;;;;;7.55;5.43;;;;;;;;;;2085808;28;20033;-80
2021/11/19 02:11:06;;;;;;;9.18;5.60;;;;;;;;;;2086814;28;20028;-79
2021/11/19 02:12:41;;;;;;;5.57;4.93;;;;;;;;;;2084915;28;20756;-79
2021/11/19 02:14:00;;;;;;;11.13;5.15;;;;;;;;;;2086532;28;20393;-79
2021/11/19 02:15:28;;;;;;;8.13;4.93;;;;;;;;;;2086079;28;20036;-79
2021/11/19 02:16:51;;;;;;;6.78;4.57;;;;;;;;;;2086493;28;20104;-79
2021/11/19 02:18:12;;;;;;;8.40;5.20;;;;;;;;;;2089486;28;20029;-79
2021/11/19 02:19:35;;;;;;;6.40;5.03;;;;;;;;;;2086007;28;20033;-79
2021/11/19 02:20:58;;;;;;;6.38;4.80;;;;;;;;;;2084845;28;20021;-80
2021/11/19 02:22:31;;;;;;;5.72;4.57;;;;;;;;;;2093834;28;20112;-80
2021/11/19 02:23:50;;;;;;;;;;;;;;;;;;2097209;28;20032;-80
2021/11/19 02:25:18;;;;;;;6.88;4.38;;;;;;;;;;2088857;28;19912;-80
2021/11/19 02:26:39;;;;;;;6.43;5.10;;;;;;;;;;2089912;28;20028;-79
2021/11/19 02:28:02;;;;;;;5.90;5.00;;;;;;;;;;2094956;28;20028;-80
2021/11/19 02:29:21;;;;;;;7.63;4.72;;;;;;;;;;2085033;28;20037;-80
2021/11/19 02:30:46;;;;;;;6.97;5.30;;;;;;;;;;2084937;28;20044;-79
2021/11/19 02:32:13;;;;;;;10.77;5.38;;;;;;;;;;2092797;28;20451;-80
2021/11/19 02:33:33;;;;;;;7.95;5.97;;;;;;;;;;2092249;28;20053;-80
2021/11/19 02:34:51;;;;;;;10.65;5.20;;;;;;;;;;2084504;28;20029;-80
2021/11/19 02:36:15;;;;;;;5.82;5.32;;;;;;;;;;2084374;28;20025;-80
2021/11/19 02:37:37;;;;;;;8.90;6.15;;;;;;;;;;2086789;28;20098;-80
2021/11/19 02:39:06;;;;;;;9.90;5.70;;;;;;;;;;2085556;28;20033;-80
2021/11/19 02:40:27;;;;;;;8.13;5.80;;;;;;;;;;2094323;28;20032;-80
2021/11/19 02:41:48;;;;;;;7.05;6.43;;;;;;;;;;2087889;28;20107;-79
2021/11/19 02:43:30;;;;;;;10.95;6.50;;;;;;;;;;2087008;28;20489;-80
2021/11/19 02:44:50;;;;;;;8.90;6.10;;;;;;;;;;2086876;28;20053;-80
2021/11/19 02:46:17;;;;;;;9.50;6.63;;;;;;;;;;2086888;28;20033;-80
2021/11/19 02:47:36;;;;;;;10.70;5.95;;;;;;;;;;2086520;28;20033;-80
2021/11/19 02:48:55;;;;;;;11.32;6.32;;;;;;;;;;2086552;28;20461;-81
2021/11/19 02:50:16;;;;;;;10.77;7.05;;;;;;;;;;2084428;28;20489;-80
2021/11/19 02:51:36;;;;;;;12.88;6.72;;;;;;;;;;2087627;28;20037;-80
2021/11/19 02:52:57;;;;;;;7.63;6.47;;;;;;;;;;2089637;28;20025;-81
2021/11/19 02:54:17;;;;;;;11.35;6.93;;;;;;;;;;2091570;28;20028;-80
2021/11/19 02:55:37;;;;;;;10.38;7.22;;;;;;;;;;2087865;28;20029;-80
2021/11/19 02:56:57;;;;;;;11.45;7.13;;;;;;;;;;2086883;28;20025;-80
2021/11/19 02:58:18;;;;;;;9.32;6.90;;;;;;;;;;2090642;28;20104;-80
2021/11/19 02:59:37;;;;;;;10.90;6.60;;;;;;;;;;2086669;28;20071;-80
2021/11/19 03:00:59;;;;;;;12.10;6.60;;;;;;;;;;2088415;28;20465;-79
2021/11/19 03:02:20;;;;;;;9.07;6.28;;;;;;;;;;2084760;28;20037;-80
2021/11/19 03:03:41;;;;;;;12.93;6.95;;;;;;;;;;2088534;28;20484;-79
2021/11/19 03:05:01;;;;;;;8.93;7.20;;;;;;;;;;2088229;28;20060;-79
2021/11/19 03:06:20;;;;;;;10.85;7.72;;;;;;;;;;2086886;28;20036;-79
2021/11/19 03:07:39;;;;;;;9.45;6.70;;;;;;;;;;2084979;28;20694;-79
2021/11/19 03:08:58;;;;;;;9.52;6.47;;;;;;;;;;2083917;28;20029;-80
2021/11/19 03:10:19;;;;;;;11.43;6.53;;;;;;;;;;2088313;28;20029;-79
2021/11/19 03:11:38;;;;;;;9.93;6.63;;;;;;;;;;2085391;28;20029;-79
2021/11/19 03:12:58;;;;;;;9.68;6.70;;;;;;;;;;2084734;28;20501;-79
2021/11/19 03:14:18;;;;;;;11.38;5.95;;;;;;;;;;2085417;28;20037;-79
2021/11/19 03:15:39;;;;;;;7.90;5.70;;;;;;;;;;2090757;28;20041;-79
2021/11/19 03:16:59;;;;;;;10.48;5.20;;;;;;;;;;2095512;28;20021;-79
2021/11/19 03:18:19;;;;;;;7.55;4.70;;;;;;;;;;2092156;28;20025;-78
2021/11/19 03:19:39;;;;;;;7.25;5.20;;;;;;;;;;2089720;28;20021;-79
2021/11/19 03:21:00;;;;;;;8.68;5.10;;;;;;;;;;2084788;28;20083;-79
2021/11/19 03:22:21;;;;;;;5.85;5.03;;;;;;;;;;2088225;28;20037;-79
2021/11/19 03:23:40;;;;;;;4.82;4.45;;;;;;;;;;2089817;28;20029;-79
2021/11/19 03:24:59;;;;;;;6.47;4.70;;;;;;;;;;2088923;28;20052;-79
2021/11/19 03:26:18;;;;;;;5.15;4.50;;;;;;;;;;2089579;28;20025;-79
2021/11/19 03:27:37;;;;;;;5.47;3.90;;;;;;;;;;2084318;28;20496;-79
2021/11/19 03:28:56;;;;;;;4.60;4.15;;;;;;;;;;2087995;28;20030;-79
2021/11/19 03:30:16;;;;;;;5.45;4.38;;;;;;;;;;2088820;28;20493;-80
2021/11/19 03:31:36;;;;;;;4.15;3.72;;;;;;;;;;2089754;28;20033;-80
2021/11/19 03:32:55;;;;;;;5.05;4.15;;;;;;;;;;2088734;28;20033;-79
2021/11/19 03:34:15;;;;;;;4.85;3.80;;;;;;;;;;2086223;28;20404;-79
2021/11/19 03:35:34;;;;;;;3.83;3.53;;;;;;;;;;2088729;28;20064;-79
2021/11/19 03:36:54;;;;;;;3.67;3.15;;;;;;;;;;2089893;28;20017;-79
2021/11/19 03:38:13;;;;;;;4.00;3.53;;;;;;;;;;2086135;28;20417;-80
2021/11/19 03:39:32;;;;;;;3.80;3.08;;;;;;;;;;2090360;28;20033;-80
2021/11/19 03:40:52;;;;;;;3.35;3.05;;;;;;;;;;2085892;28;20052;-79
2021/11/19 03:42:12;;;;;;;5.38;3.60;;;;;;;;;;2093498;28;20032;-80
2021/11/19 03:43:34;;;;;;;3.20;2.72;;;;;;;;;;2085734;28;20037;-80
2021/11/19 03:44:57;;;;;;;2.70;2.50;;;;;;;;;;2084524;28;20034;-80
2021/11/19 03:46:18;;;;;;;4.22;2.55;;;;;;;;;;2095179;28;20040;-79
2021/11/19 03:47:39;;;;;;;2.55;2.35;;;;;;;;;;2088708;28;20025;-80
2021/11/19 03:48:58;;;;;;;3.20;2.90;;;;;;;;;;2085816;28;20098;-79
2021/11/19 03:50:37;;;;;;;4.72;3.00;;;;;;;;;;2084858;28;20060;-79
2021/11/19 03:51:59;;;;;;;2.78;2.53;;;;;;;;;;2090741;28;20026;-79
2021/11/19 03:53:18;;;;;;;3.88;2.38;;;;;;;;;;2094456;28;20024;-79
2021/11/19 03:54:38;;;;;;;1.83;1.73;;;;;;;;;;2088628;28;20500;-79
2021/11/19 03:55:58;;;;;;;1.95;1.85;;;;;;;;;;2092104;28;22711;-79
2021/11/19 03:57:17;;;;;;;2.05;1.95;;;;;;;;;;2088902;28;20275;-79
2021/11/19 03:58:37;;;;;;;2.17;2.03;;;;;;;;;;2082684;28;20025;-79
2021/11/19 03:59:56;;;;;;;3.63;2.10;;;;;;;;;;2084384;28;20025;-79
2021/11/19 04:01:18;;;;;;;2.58;2.38;;;;;;;;;;2089450;28;20025;-78
2021/11/19 04:02:37;;;;;;;2.58;2.30;;;;;;;;;;2089479;28;20646;-79
2021/11/19 04:03:56;;;;;;;3.28;2.47;;;;;;;;;;2087459;28;20020;-79
2021/11/19 04:05:15;;;;;;;2.50;2.13;;;;;;;;;;2088692;28;20024;-78
2021/11/19 04:06:34;;;;;;;2.20;1.92;;;;;;;;;;2087043;28;20028;-79
2021/11/19 04:07:53;;;;;;;2.65;1.92;;;;;;;;;;2086891;28;20468;-79
2021/11/19 04:09:12;;;;;;;2.75;2.40;;;;;;;;;;2089012;28;20679;-79
2021/11/19 04:10:32;;;;;;;2.47;2.20;;;;;;;;;;2087991;28;20395;-79
2021/11/19 04:11:51;;;;;;;2.58;2.38;;;;;;;;;;2089534;28;20050;-79
2021/11/19 04:13:10;;;;;;;2.35;2.25;;;;;;;;;;2085618;28;20018;-79
2021/11/19 04:14:29;;;;;;;2.30;2.10;;;;;;;;;;2084265;28;20168;-79
2021/11/19 04:15:55;;;;;;;2.30;2.20;;;;;;;;;;2088309;28;20435;-80
2021/11/19 04:17:14;;;;;;;2.40;2.20;;;;;;;;;;2089763;28;20033;-79
2021/11/19 04:18:32;;;;;;;2.40;2.20;;;;;;;;;;2086014;28;20024;-79
2021/11/19 04:19:51;;;;;;;3.88;2.33;;;;;;;;;;2084752;28;20029;-79
2021/11/19 04:21:10;;;;;;;2.53;2.20;;;;;;;;;;2088597;28;20029;-79
2021/11/19 04:22:29;;;;;;;1.85;1.70;;;;;;;;;;2095407;28;20067;-78
2021/11/19 04:23:49;;;;;;;2.60;2.40;;;;;;;;;;2085629;28;20068;-79
2021/11/19 04:25:09;;;;;;;2.10;2.00;;;;;;;;;;2085814;28;20033;-79
2021/11/19 04:26:28;;;;;;;1.70;1.60;;;;;;;;;;2088553;28;20060;-79
2021/11/19 04:27:48;;;;;;;2.13;1.98;;;;;;;;;;2084702;28;20021;-79
2021/11/19 04:29:07;;;;;;;1.80;1.70;;;;;;;;;;2083208;28;20033;-79
2021/11/19 04:30:28;;;;;;;2.33;1.90;;;;;;;;;;2083875;28;20042;-78
2021/11/19 04:31:47;;;;;;;2.40;2.20;;;;;;;;;;2089338;28;20480;-79
2021/11/19 04:33:06;;;;;;;1.80;1.70;;;;;;;;;;2087055;28;20041;-79
2021/11/19 04:34:25;;;;;;;2.35;2.15;;;;;;;;;;2086740;28;20026;-79
2021/11/19 04:35:45;;;;;;;2.30;2.10;;;;;;;;;;2083329;28;20029;-79
2021/11/19 04:37:04;;;;;;;2.92;2.17;;;;;;;;;;2086481;28;20017;-79
2021/11/19 04:38:23;;;;;;;2.00;1.90;;;;;;;;;;2093351;28;20025;-79
2021/11/19 04:39:42;;;;;;;2.53;2.33;;;;;;;;;;2089342;28;20033;-79
2021/11/19 04:41:02;;;;;;;2.60;2.40;;;;;;;;;;2087559;28;20021;-78
2021/11/19 04:42:22;;;;;;;2.28;1.90;;;;;;;;;;2087680;28;20164;-79
2021/11/19 04:43:41;;;;;;;1.85;1.75;;;;;;;;;;2086973;28;20021;-79
2021/11/19 04:45:00;;;;;;;2.35;2.15;;;;;;;;;;2089388;28;20028;-79
2021/11/19 04:46:19;;;;;;;2.22;2.13;;;;;;;;;;2085334;28;20029;-79
2021/11/19 04:47:38;;;;;;;3.00;2.20;;;;;;;;;;2085380;28;20428;-79
2021/11/19 04:48:56;;;;;;;2.38;2.28;;;;;;;;;;2084480;28;20017;-79
2021/11/19 04:50:20;;;;;;;2.10;1.90;;;;;;;;;;2083520;28;20028;-79
2021/11/19 04:51:39;;;;;;;2.42;2.22;;;;;;;;;;2092602;28;20108;-79
2021/11/19 04:52:58;;;;;;;3.17;2.30;;;;;;;;;;2087780;28;20501;-80
2021/11/19 04:54:18;;;;;;;2.20;2.10;;;;;;;;;;2085488;28;20033;-79
2021/11/19 04:55:37;;;;;;;2.25;1.98;;;;;;;;;;2084176;28;20029;-79
2021/11/19 04:56:56;;;;;;;2.35;2.25;;;;;;;;;;2090784;28;20021;-80
2021/11/19 04:58:15;;;;;;;2.42;2.22;;;;;;;;;;2087455;28;20025;-79
2021/11/19 04:59:34;;;;;;;3.55;2.72;;;;;;;;;;2082961;28;20485;-80
2021/11/19 05:00:55;;;;;;;2.35;2.15;;;;;;;;;;2088917;28;20025;-79
2021/11/19 05:02:16;;;;;;;3.28;2.28;;;;;;;;;;2087729;28;20505;-80
2021/11/19 05:03:38;;;;;;;2.47;2.28;;;;;;;;;;2089330;28;20043;-82
2021/11/19 05:04:57;;;;;;;2.63;2.47;;;;;;;;;;2085484;28;20481;-80
2021/11/19 05:06:21;;;;;;;2.40;2.30;;;;;;;;;;2086214;28;20448;-80
2021/11/19 05:07:40;;;;;;;2.58;2.40;;;;;;;;;;2086923;28;20041;-80
2021/11/19 05:08:59;;;;;;;2.70;2.50;;;;;;;;;;2087635;28;20033;-80
2021/11/19 05:10:18;;;;;;;2.60;2.40;;;;;;;;;;2088222;28;20025;-80
2021/11/19 05:11:44;;;;;;;2.15;1.88;;;;;;;;;;2085989;28;20033;-79
2021/11/19 05:13:06;;;;;;;2.58;2.38;;;;;;;;;;2089090;28;20107;-80
2021/11/19 05:14:25;;;;;;;1.75;1.63;;;;;;;;;;2094649;28;20040;-80
2021/11/19 05:15:46;;;;;;;2.28;2.17;;;;;;;;;;2088591;28;20040;-81
2021/11/19 05:17:09;;;;;;;1.75;1.65;;;;;;;;;;2085444;28;20033;-82
2021/11/19 05:18:28;;;;;;;2.30;2.20;;;;;;;;;;2094419;28;20443;-79
2021/11/19 05:19:47;;;;;;;2.10;2.00;;;;;;;;;;2088049;28;20037;-82
2021/11/19 05:21:07;;;;;;;2.42;2.22;;;;;;;;;;2085912;28;20053;-81
2021/11/19 05:22:26;;;;;;;2.22;2.03;;;;;;;;;;2085548;28;20033;-81
2021/11/19 05:23:45;;;;;;;1.92;1.83;;;;;;;;;;2089117;28;20103;-81
2021/11/19 05:25:06;;;;;;;2.03;1.92;;;;;;;;;;2089615;28;20413;-82
2021/11/19 05:26:28;;;;;;;1.90;1.80;;;;;;;;;;2082956;28;20017;-82
2021/11/19 05:27:48;;;;;;;2.17;2.00;;;;;;;;;;2088672;28;20025;-81
2021/11/19 05:29:08;;;;;;;1.60;1.50;;;;;;;;;;2084609;28;20056;-82
2021/11/19 05:30:27;;;;;;;2.95;1.60;;;;;;;;;;2086177;28;20016;-81
2021/11/19 05:31:46;;;;;;;1.52;1.42;;;;;;;;;;2090448;28;20107;-80
2021/11/19 05:33:07;;;;;;;1.73;1.60;;;;;;;;;;2088283;28;20029;-80
2021/11/19 05:34:39;;;;;;;1.85;1.75;;;;;;;;;;2085935;28;20020;-81
2021/11/19 05:35:58;;;;;;;1.90;1.80;;;;;;;;;;2093560;28;20060;-81
2021/11/19 05:37:52;;;;;;;2.05;1.95;;;;;;;;;;2088057;28;20687;-80
2021/11/19 05:39:14;;;;;;;2.30;2.10;;;;;;;;;;2064764;28;20034;-78
2021/11/19 05:40:37;;;;;;;1.95;1.85;;;;;;;;;;2087427;28;20037;-79
2021/11/19 05:42:02;;;;;;;1.80;1.70;;;;;;;;;;2088112;28;20028;-80
2021/11/19 05:43:21;;;;;;;2.28;2.08;;;;;;;;;;2084916;28;20025;-79
2021/11/19 05:44:42;;;;;;;2.40;2.20;;;;;;;;;;2083264;28;20057;-79
2021/11/19 05:46:04;;;;;;;4.65;2.30;;;;;;;;;;2086389;28;20104;-80
2021/11/19 05:47:28;;;;;;;1.30;1.30;;;;;;;;;;2088370;28;20068;-80
2021/11/19 05:48:48;;;;;;;1.70;1.60;;;;;;;;;;2085459;28;20052;-79
2021/11/19 05:50:11;;;;;;;2.05;1.42;;;;;;;;;;2081059;28;20076;-82
2021/11/19 05:51:30;;;;;;;1.60;1.50;;;;;;;;;;2084584;28;20111;-81
2021/11/19 05:52:49;;;;;;;1.85;1.75;;;;;;;;;;2084661;28;20025;-80
2021/11/19 05:54:10;;;;;;;2.25;1.67;;;;;;;;;;2086434;28;20100;-80
2021/11/19 05:55:30;;;;;;;1.83;1.73;;;;;;;;;;2086663;28;20030;-80
2021/11/19 05:56:50;;;;;;;1.90;1.80;;;;;;;;;;2087277;28;20025;-81
2021/11/19 05:58:09;;;;;;;2.00;1.90;;;;;;;;;;2088381;28;20028;-80
2021/11/19 05:59:30;;;;;;;2.10;1.90;;;;;;;;;;2088037;28;20033;-81
2021/11/19 06:00:52;;;;;;;2.30;2.20;;;;;;;;;;2083297;28;20025;-81
2021/11/19 06:02:12;;;;;;;2.15;2.03;;;;;;;;;;2085130;28;20107;-81
2021/11/19 06:03:32;;;;;;;3.63;2.00;;;;;;;;;;2085322;28;20021;-82
2021/11/19 06:04:51;;;;;;;2.95;2.17;;;;;;;;;;2084906;28;20071;-81
2021/11/19 06:06:12;;;;;;;1.75;1.65;;;;;;;;;;2084679;28;20034;-81
2021/11/19 06:07:31;;;;;;;2.17;1.98;;;;;;;;;;2086158;28;20037;-82
2021/11/19 06:08:52;;;;;;;2.22;2.05;;;;;;;;;;2087462;28;20060;-80
2021/11/19 06:10:15;;;;;;;2.70;2.47;;;;;;;;;;2083535;28;20385;-81
2021/11/19 06:11:38;;;;;;;1.98;1.88;;;;;;;;;;2082866;28;20093;-82
2021/11/19 06:13:22;;;;;;;1.45;1.35;;;;;;;;;;2093167;28;20024;-82
2021/11/19 06:14:52;;;;;;;1.17;1.17;;;;;;;;;;2086885;28;20045;-81
2021/11/19 06:16:17;;;;;;;1.23;1.17;;;;;;;;;;2087042;28;20025;-82
2021/11/19 06:17:38;;;;;;;1.65;1.40;;;;;;;;;;2086392;28;20513;-82
2021/11/19 06:18:59;;;;;;;2.00;1.90;;;;;;;;;;2081819;28;20032;-84
2021/11/19 06:20:20;;;;;;;2.22;2.13;;;;;;;;;;2084758;28;20033;-80
2021/11/19 06:21:40;;;;;;;1.90;1.80;;;;;;;;;;2086753;28;20037;-82
2021/11/19 06:23:10;;;;;;;3.50;2.10;;;;;;;;;;2087434;28;20481;-83
2021/11/19 06:24:32;;;;;;;2.35;2.17;;;;;;;;;;2087559;28;20465;-83
2021/11/19 06:25:51;;;;;;;1.98;1.88;;;;;;;;;;2088971;28;20032;-81
2021/11/19 06:27:12;;;;;;;2.30;2.13;;;;;;;;;;2088038;28;20115;-81
2021/11/19 06:28:32;;;;;;;3.38;2.00;;;;;;;;;;2084663;28;20029;-82
2021/11/19 06:29:52;;;;;;;2.30;2.20;;;;;;;;;;2086238;28;20025;-84
2021/11/19 06:31:12;;;;;;;2.65;2.45;;;;;;;;;;2074335;28;20116;-80
2021/11/19 06:32:32;;;;;;;2.40;2.30;;;;;;;;;;2084136;28;20037;-82
2021/11/19 06:33:53;;;;;;;2.30;2.20;;;;;;;;;;2085438;28;20099;-80
2021/11/19 06:35:12;;;;;;;2.08;1.98;;;;;;;;;;2086379;28;20026;-80
2021/11/19 06:36:31;;;;;;;2.30;2.20;;;;;;;;;;2082945;28;20017;-82
2021/11/19 06:37:50;;;;;;;2.75;2.55;;;;;;;;;;2088498;28;20025;-80
2021/11/19 06:39:10;;;;;;;2.40;2.30;;;;;;;;;;2089087;28;20037;-81
2021/11/19 06:40:30;;;;;;;2.60;2.40;;;;;;;;;;2085595;28;20406;-80
2021/11/19 06:41:50;;;;;;;2.65;2.45;;;;;;;;;;2086642;28;20514;-81
2021/11/19 06:43:09;;;;;;;2.13;2.03;;;;;;;;;;2083490;28;20025;-81
2021/11/19 06:44:28;;;;;;;2.08;1.98;;;;;;;;;;2084749;28;21650;-81
2021/11/19 06:45:47;;;;;;;2.15;2.05;;;;;;;;;;2085114;28;20714;-80
2021/11/19 06:47:06;;;;;;;2.35;2.25;;;;;;;;;;2088122;28;20092;-80
2021/11/19 06:48:25;;;;;;;2.80;2.70;;;;;;;;;;2079873;28;20033;-82
2021/11/19 06:49:45;;;;;;;2.53;2.42;;;;;;;;;;2085675;28;20041;-81
2021/11/19 06:51:04;;;;;;;2.47;2.38;;;;;;;;;;2086473;28;20029;-81
2021/11/19 06:52:23;;;;;;;3.00;2.80;;;;;;;;;;2087815;28;20447;-81
2021/11/19 06:53:42;;;;;;;2.40;2.30;;;;;;;;;;2084211;28;20124;-81
2021/11/19 06:55:00;;;;;;;2.50;2.40;;;;;;;;;;2087224;28;20025;-81
2021/11/19 06:56:19;;;;;;;3.38;2.50;;;;;;;;;;2083865;28;20029;-80
2021/11/19 06:57:39;;;;;;;3.05;2.85;;;;;;;;;;2084641;28;20485;-81
2021/11/19 06:58:57;;;;;;;2.78;2.58;;;;;;;;;;2087956;28;20052;-80
2021/11/19 07:00:19;;;;;;;2.60;2.40;;;;;;;;;;2087049;28;20037;-80
2021/11/19 07:01:38;;;;;;;2.75;2.55;;;;;;;;;;2086978;28;20037;-80
2021/11/19 07:02:57;;;;;;;3.00;2.80;;;;;;;;;;2087632;28;20042;-81
2021/11/19 07:04:16;;;;;;;3.05;2.85;;;;;;;;;;2083900;28;20460;-81
2021/11/19 07:05:35;;;;;;;3.17;2.70;;;;;;;;;;2082595;28;20119;-80
2021/11/19 07:06:54;;;;;;;3.05;2.85;;;;;;;;;;2082492;28;20052;-80
2021/11/19 07:08:13;;;;;;;2.83;2.63;;;;;;;;;;2084741;28;20036;-80
2021/11/19 07:09:32;;;;;;;2.50;2.40;;;;;;;;;;2089143;28;20135;-81
2021/11/19 07:10:52;;;;;;;2.92;2.72;;;;;;;;;;2087256;28;20025;-80
2021/11/19 07:12:12;;;;;;;2.50;2.30;;;;;;;;;;2086835;28;20409;-80
2021/11/19 07:13:31;;;;;;;2.60;2.40;;;;;;;;;;2087810;28;20033;-80
2021/11/19 07:14:51;;;;;;;2.97;2.78;;;;;;;;;;2083378;28;20768;-80
2021/11/19 07:16:10;;;;;;;2.25;2.15;;;;;;;;;;2083027;28;20116;-80
2021/11/19 07:17:29;;;;;;;2.10;2.00;;;;;;;;;;2088261;28;20513;-80
2021/11/19 07:18:48;;;;;;;2.00;1.85;;;;;;;;;;2084106;28;20131;-80
2021/11/19 07:20:09;;;;;;;2.10;2.00;;;;;;;;;;2087500;28;20036;-80
2021/11/19 07:21:28;;;;;;;2.38;1.98;;;;;;;;;;2089410;28;20022;-80
2021/11/19 07:22:48;;;;;;;2.08;1.98;;;;;;;;;;2088806;28;20041;-80
2021/11/19 07:24:07;;;;;;;1.70;1.60;;;;;;;;;;2085881;28;20742;-80
2021/11/19 07:25:28;;;;;;;2.10;2.00;;;;;;;;;;2088577;28;20104;-81
2021/11/19 07:26:47;;;;;;;1.58;1.48;;;;;;;;;;2090243;28;20528;-80
2021/11/19 07:28:06;;;;;;;2.15;2.05;;;;;;;;;;2085629;28;20033;-80
2021/11/19 07:29:25;;;;;;;2.30;2.20;;;;;;;;;;2089996;28;20033;-81
2021/11/19 07:30:51;;;;;;;2.80;2.60;;;;;;;;;;2091903;28;20440;-81
2021/11/19 07:32:10;;;;;;;2.88;2.67;;;;;;;;;;2088084;28;20574;-81
2021/11/19 07:33:29;;;;;;;2.92;2.83;;;;;;;;;;2087024;28;20377;-81
2021/11/19 07:34:48;;;;;;;2.90;2.70;;;;;;;;;;2088126;28;20021;-81
2021/11/19 07:36:08;;;;;;;3.25;2.97;;;;;;;;;;2083827;28;20109;-81
2021/11/19 07:37:27;;;;;;;2.88;2.67;;;;;;;;;;2083599;28;20025;-80
2021/11/19 07:38:45;;;;;;;3.13;2.92;;;;;;;;;;2083515;28;20025;-81
2021/11/19 07:40:08;;;;;;;2.90;2.80;;;;;;;;;;2083939;28;20025;-81
2021/11/19 07:41:27;;;;;;;3.35;3.15;;;;;;;;;;2089817;28;20021;-82
2021/11/19 07:42:45;;;;;;;3.15;2.95;;;;;;;;;;2089243;28;20033;-83
2021/11/19 07:44:04;;;;;;;2.78;2.65;;;;;;;;;;2087297;28;20029;-81
2021/11/19 07:45:24;;;;;;;3.03;2.80;;;;;;;;;;2095079;28;20085;-80
2021/11/19 07:46:43;;;;;;;3.08;2.78;;;;;;;;;;2087205;28;20113;-80
2021/11/19 07:48:04;;;;;;;2.22;2.13;;;;;;;;;;2086098;28;20041;-81
2021/11/19 07:49:23;;;;;;;3.10;2.40;;;;;;;;;;2086299;28;20025;-82
2021/11/19 07:50:43;;;;;;;2.42;2.33;;;;;;;;;;2089597;28;20048;-81
2021/11/19 07:52:03;;;;;;;2.20;2.10;;;;;;;;;;2092079;28;20025;-81
2021/11/19 07:53:22;;;;;;;2.67;2.20;;;;;;;;;;2090779;28;20028;-81
2021/11/19 07:54:41;;;;;;;2.60;2.42;;;;;;;;;;2090318;28;20025;-82
2021/11/19 07:56:00;;;;;;;2.92;2.72;;;;;;;;;;2084603;28;20021;-81
2021/11/19 07:57:19;;;;;;;2.80;2.60;;;;;;;;;;2081730;28;20033;-80
2021/11/19 07:58:38;;;;;;;2.45;2.25;;;;;;;;;;2084641;28;20037;-81
2021/11/19 07:59:57;;;;;;;2.30;2.20;;;;;;;;;;2087865;28;20033;-81
2021/11/19 08:01:16;;;;;;;2.55;2.10;;;;;;;;;;2088333;28;20071;-81
2021/11/19 08:02:35;;;;;;;2.33;2.22;;;;;;;;;;2088223;28;20021;-82
2021/11/19 08:03:54;;;;;;;2.38;2.22;;;;;;;;;;2088161;28;20115;-83
2021/11/19 08:05:14;;;;;;;5.60;2.20;;;;;;;;;;2087015;28;20029;-80